KFVX

Details ICAO KFVX
Name Farmville Rgnl
Region United States
Timezone America/New_York (UTC-4.0)
Plans Departing 1
Arriving 3
Stats Elevation 417 ft / 127 m (AMSL)
Location 37.357464° -78.438190°
Runways 1
Magnetic Variation 9.689° W
Sunrise 2018-05-27 09:58:19 UTC / 2018-05-27 05:58:19 Local
Sunset 2018-05-28 00:26:26 UTC / 2018-05-27 20:26:26 Local
Advertisement - Login to hide

Runways

ID Width Length Bearing (true) Bearing (mag) Surface Threshold Offset Overrun Length
03 75 ft / 23 m 4,445 ft / 1,355 m 19.07° 28.76° Asphalt 0 ft / 0 m 0 ft / 0 m
21 75 ft / 23 m 4,445 ft / 1,355 m 199.08° 208.77° Asphalt 0 ft / 0 m 0 ft / 0 m

Map

Weather


0- 5 10 15 20 25 30 35+ Temperature / ° C

Clouds and Precipitation
Forecast for 2018-05-27 18:00 UTC. Updated 3 hours ago

Ground ~20,000 ft ~40,000 ft Winds

METAR

KFVX 272015Z AUTO 19009KT 10SM SCT031 SCT039 SCT050 30/30 A2991 RMK AO2 LTG DSNT NW THRU NE T02990298

TAF

Not found

Frequencies

Recorded 132.72 MHz AWOS 3
Unicom 122.80 MHz CTAF/UNICOM
Warning: Do not use this data for real-world aviation or navigation. No guarantee of current accuracy is given.